sensor_id;sensor_type;location;lat;lon;timestamp;pressure;altitude;pressure_sealevel;temperature;humidity
80424;BME280;69765;47.668;19.326;2023-05-07T00:01:14;99142.22;;;13.16;87.22
80424;BME280;69765;47.668;19.326;2023-05-07T00:04:17;99146.06;;;13.22;86.48
80424;BME280;69765;47.668;19.326;2023-05-07T00:07:20;99130.22;;;13.16;85.61
80424;BME280;69765;47.668;19.326;2023-05-07T00:10:23;99127.75;;;12.87;87.37
80424;BME280;69765;47.668;19.326;2023-05-07T00:13:25;99137.13;;;12.86;86.87
80424;BME280;69765;47.668;19.326;2023-05-07T00:16:27;99137.97;;;12.70;86.29
80424;BME280;69765;47.668;19.326;2023-05-07T00:19:30;99135.91;;;12.65;86.29
80424;BME280;69765;47.668;19.326;2023-05-07T00:22:32;99131.41;;;12.46;87.27
80424;BME280;69765;47.668;19.326;2023-05-07T00:25:35;99135.13;;;12.51;86.54
80424;BME280;69765;47.668;19.326;2023-05-07T00:28:37;99132.94;;;12.42;87.78
80424;BME280;69765;47.668;19.326;2023-05-07T00:31:39;99137.78;;;12.67;87.20
80424;BME280;69765;47.668;19.326;2023-05-07T00:34:43;99138.56;;;12.81;87.59
80424;BME280;69765;47.668;19.326;2023-05-07T00:37:45;99137.91;;;13.00;86.57
80424;BME280;69765;47.668;19.326;2023-05-07T00:40:47;99143.75;;;12.97;85.59
80424;BME280;69765;47.668;19.326;2023-05-07T00:43:50;99144.38;;;12.93;86.40
80424;BME280;69765;47.668;19.326;2023-05-07T00:46:53;99142.25;;;13.01;87.17
80424;BME280;69765;47.668;19.326;2023-05-07T00:49:57;99135.34;;;13.00;87.22
80424;BME280;69765;47.668;19.326;2023-05-07T00:53:00;99136.66;;;13.23;85.31
80424;BME280;69765;47.668;19.326;2023-05-07T00:56:02;99137.16;;;13.32;83.68
80424;BME280;69765;47.668;19.326;2023-05-07T00:59:05;99137.94;;;13.31;82.95
80424;BME280;69765;47.668;19.326;2023-05-07T01:02:08;99142.56;;;13.22;83.53
80424;BME280;69765;47.668;19.326;2023-05-07T01:05:12;99139.81;;;13.19;83.04
80424;BME280;69765;47.668;19.326;2023-05-07T01:08:17;99147.59;;;13.20;83.05
80424;BME280;69765;47.668;19.326;2023-05-07T01:11:20;99139.00;;;13.20;83.62
80424;BME280;69765;47.668;19.326;2023-05-07T01:14:24;99143.09;;;13.16;83.83
80424;BME280;69765;47.668;19.326;2023-05-07T01:17:27;99137.31;;;13.20;83.88
80424;BME280;69765;47.668;19.326;2023-05-07T01:20:30;99137.00;;;13.14;84.75
80424;BME280;69765;47.668;19.326;2023-05-07T01:23:33;99143.22;;;13.03;85.95
80424;BME280;69765;47.668;19.326;2023-05-07T01:26:36;99138.56;;;13.12;86.69
80424;BME280;69765;47.668;19.326;2023-05-07T01:29:39;99139.75;;;13.48;84.86
80424;BME280;69765;47.668;19.326;2023-05-07T01:33:06;99144.25;;;13.36;84.96
80424;BME280;69765;47.668;19.326;2023-05-07T01:36:11;99135.22;;;13.13;86.60
80424;BME280;69765;47.668;19.326;2023-05-07T01:39:15;99136.41;;;13.35;86.16
80424;BME280;69765;47.668;19.326;2023-05-07T01:42:18;99141.19;;;12.97;88.70
80424;BME280;69765;47.668;19.326;2023-05-07T01:45:20;99138.19;;;13.21;87.86
80424;BME280;69765;47.668;19.326;2023-05-07T01:48:24;99139.41;;;13.42;87.08
80424;BME280;69765;47.668;19.326;2023-05-07T01:51:27;99132.75;;;13.62;85.42
80424;BME280;69765;47.668;19.326;2023-05-07T01:54:30;99138.84;;;13.64;83.94
80424;BME280;69765;47.668;19.326;2023-05-07T01:57:33;99132.66;;;13.44;86.01
80424;BME280;69765;47.668;19.326;2023-05-07T02:00:36;99132.81;;;13.47;85.93
80424;BME280;69765;47.668;19.326;2023-05-07T02:03:39;99137.56;;;13.40;86.89
80424;BME280;69765;47.668;19.326;2023-05-07T02:06:49;99126.56;;;13.59;86.05
80424;BME280;69765;47.668;19.326;2023-05-07T02:09:51;99120.94;;;13.66;84.66
80424;BME280;69765;47.668;19.326;2023-05-07T02:12:54;99116.25;;;13.59;85.48
80424;BME280;69765;47.668;19.326;2023-05-07T02:15:57;99114.63;;;13.44;86.04
80424;BME280;69765;47.668;19.326;2023-05-07T02:19:01;99117.56;;;13.19;87.17
80424;BME280;69765;47.668;19.326;2023-05-07T02:22:03;99112.47;;;13.21;86.90
80424;BME280;69765;47.668;19.326;2023-05-07T02:25:06;99106.19;;;13.30;86.20
80424;BME280;69765;47.668;19.326;2023-05-07T02:28:08;99109.91;;;13.21;85.78
80424;BME280;69765;47.668;19.326;2023-05-07T02:31:40;99110.25;;;12.96;85.80
80424;BME280;69765;47.668;19.326;2023-05-07T02:34:42;99107.88;;;12.84;86.06
80424;BME280;69765;47.668;19.326;2023-05-07T02:37:44;99127.03;;;12.89;85.51
80424;BME280;69765;47.668;19.326;2023-05-07T02:40:48;99113.63;;;12.95;85.53
80424;BME280;69765;47.668;19.326;2023-05-07T02:43:51;99122.59;;;12.87;86.30
80424;BME280;69765;47.668;19.326;2023-05-07T02:46:54;99122.06;;;12.77;87.74
80424;BME280;69765;47.668;19.326;2023-05-07T02:49:57;99123.22;;;12.83;87.83
80424;BME280;69765;47.668;19.326;2023-05-07T02:52:59;99115.97;;;13.07;86.13
80424;BME280;69765;47.668;19.326;2023-05-07T02:56:02;99120.53;;;12.96;87.40
80424;BME280;69765;47.668;19.326;2023-05-07T02:59:04;99117.97;;;12.96;87.12
80424;BME280;69765;47.668;19.326;2023-05-07T03:02:12;99121.28;;;12.64;88.92
80424;BME280;69765;47.668;19.326;2023-05-07T03:05:14;99123.41;;;12.56;90.19
80424;BME280;69765;47.668;19.326;2023-05-07T03:08:17;99126.59;;;12.82;88.72
80424;BME280;69765;47.668;19.326;2023-05-07T03:11:19;99122.03;;;12.92;88.34
80424;BME280;69765;47.668;19.326;2023-05-07T03:14:21;99123.06;;;13.11;86.78
80424;BME280;69765;47.668;19.326;2023-05-07T03:17:24;99116.22;;;13.11;85.82
80424;BME280;69765;47.668;19.326;2023-05-07T03:20:26;99127.25;;;13.09;85.98
80424;BME280;69765;47.668;19.326;2023-05-07T03:23:29;99127.16;;;13.07;86.25
80424;BME280;69765;47.668;19.326;2023-05-07T03:26:32;99129.22;;;12.98;86.40
80424;BME280;69765;47.668;19.326;2023-05-07T03:29:35;99135.44;;;12.87;86.97
80424;BME280;69765;47.668;19.326;2023-05-07T03:32:37;99130.38;;;12.88;86.69
80424;BME280;69765;47.668;19.326;2023-05-07T03:35:43;99136.47;;;13.05;86.03
80424;BME280;69765;47.668;19.326;2023-05-07T03:38:48;99139.44;;;12.82;87.43
80424;BME280;69765;47.668;19.326;2023-05-07T03:41:54;99141.72;;;12.92;87.05
80424;BME280;69765;47.668;19.326;2023-05-07T03:44:56;99137.44;;;13.07;86.46
80424;BME280;69765;47.668;19.326;2023-05-07T03:47:59;99140.34;;;13.28;84.71
80424;BME280;69765;47.668;19.326;2023-05-07T03:51:02;99142.22;;;13.16;86.40
80424;BME280;69765;47.668;19.326;2023-05-07T03:54:07;99142.34;;;12.88;86.72
80424;BME280;69765;47.668;19.326;2023-05-07T03:57:10;99148.22;;;12.85;88.02
80424;BME280;69765;47.668;19.326;2023-05-07T04:00:13;99139.84;;;13.04;86.87
80424;BME280;69765;47.668;19.326;2023-05-07T04:03:21;99145.53;;;12.98;88.37
80424;BME280;69765;47.668;19.326;2023-05-07T04:06:24;99147.72;;;13.22;87.23
80424;BME280;69765;47.668;19.326;2023-05-07T04:09:27;99140.91;;;13.22;87.00
80424;BME280;69765;47.668;19.326;2023-05-07T04:12:32;99151.66;;;13.00;88.28
80424;BME280;69765;47.668;19.326;2023-05-07T04:15:35;99145.91;;;12.90;88.99
80424;BME280;69765;47.668;19.326;2023-05-07T04:18:40;99141.00;;;13.09;87.61
80424;BME280;69765;47.668;19.326;2023-05-07T04:21:43;99137.78;;;13.28;87.02
80424;BME280;69765;47.668;19.326;2023-05-07T04:24:45;99133.88;;;13.20;87.42
80424;BME280;69765;47.668;19.326;2023-05-07T04:27:48;99146.44;;;12.99;88.24
80424;BME280;69765;47.668;19.326;2023-05-07T04:30:52;99140.84;;;12.91;88.71
80424;BME280;69765;47.668;19.326;2023-05-07T04:33:56;99149.28;;;13.20;87.66
80424;BME280;69765;47.668;19.326;2023-05-07T04:36:59;99145.41;;;13.12;88.55
80424;BME280;69765;47.668;19.326;2023-05-07T04:40:02;99148.78;;;13.11;88.29
80424;BME280;69765;47.668;19.326;2023-05-07T04:43:05;99162.94;;;13.34;87.74
80424;BME280;69765;47.668;19.326;2023-05-07T04:46:14;99156.31;;;13.53;85.84
80424;BME280;69765;47.668;19.326;2023-05-07T04:49:17;99159.88;;;13.55;86.86
80424;BME280;69765;47.668;19.326;2023-05-07T04:52:20;99163.84;;;13.34;86.93
80424;BME280;69765;47.668;19.326;2023-05-07T04:55:23;99166.78;;;13.25;87.14
80424;BME280;69765;47.668;19.326;2023-05-07T04:58:25;99171.25;;;13.44;86.14
80424;BME280;69765;47.668;19.326;2023-05-07T05:01:28;99175.44;;;13.42;86.85
80424;BME280;69765;47.668;19.326;2023-05-07T05:04:31;99172.75;;;13.41;87.47
80424;BME280;69765;47.668;19.326;2023-05-07T05:07:33;99178.59;;;13.53;87.65
80424;BME280;69765;47.668;19.326;2023-05-07T05:10:36;99170.72;;;13.66;87.63
80424;BME280;69765;47.668;19.326;2023-05-07T05:13:40;99168.16;;;13.82;87.01
80424;BME280;69765;47.668;19.326;2023-05-07T05:16:50;99181.44;;;14.23;85.47
80424;BME280;69765;47.668;19.326;2023-05-07T05:19:56;99178.09;;;14.58;84.68
80424;BME280;69765;47.668;19.326;2023-05-07T05:22:59;99184.38;;;15.15;83.29
80424;BME280;69765;47.668;19.326;2023-05-07T05:26:02;99195.25;;;15.63;81.29
80424;BME280;69765;47.668;19.326;2023-05-07T05:29:07;99189.66;;;15.91;80.10
80424;BME280;69765;47.668;19.326;2023-05-07T05:32:13;99189.66;;;16.30;76.69
80424;BME280;69765;47.668;19.326;2023-05-07T05:35:16;99188.69;;;16.88;75.49
80424;BME280;69765;47.668;19.326;2023-05-07T05:38:19;99190.03;;;17.65;72.83
80424;BME280;69765;47.668;19.326;2023-05-07T05:41:23;99185.44;;;17.57;72.22
80424;BME280;69765;47.668;19.326;2023-05-07T05:44:25;99176.16;;;17.64;72.47
80424;BME280;69765;47.668;19.326;2023-05-07T05:47:27;99179.19;;;18.21;70.29
80424;BME280;69765;47.668;19.326;2023-05-07T05:50:31;99180.44;;;18.32;68.72
80424;BME280;69765;47.668;19.326;2023-05-07T05:53:33;99180.03;;;19.22;66.46
80424;BME280;69765;47.668;19.326;2023-05-07T05:56:37;99179.63;;;18.33;67.98
80424;BME280;69765;47.668;19.326;2023-05-07T05:59:39;99175.53;;;18.40;67.71
80424;BME280;69765;47.668;19.326;2023-05-07T06:02:42;99178.44;;;18.25;68.58
80424;BME280;69765;47.668;19.326;2023-05-07T06:05:47;99185.06;;;18.90;66.66
80424;BME280;69765;47.668;19.326;2023-05-07T06:08:49;99182.69;;;18.97;66.08
80424;BME280;69765;47.668;19.326;2023-05-07T06:11:57;99185.16;;;18.68;68.11
80424;BME280;69765;47.668;19.326;2023-05-07T06:15:03;99173.06;;;19.48;64.32
80424;BME280;69765;47.668;19.326;2023-05-07T06:18:06;99180.69;;;19.15;64.18
80424;BME280;69765;47.668;19.326;2023-05-07T06:21:09;99172.72;;;19.37;64.07
80424;BME280;69765;47.668;19.326;2023-05-07T06:24:13;99174.66;;;20.02;61.95
80424;BME280;69765;47.668;19.326;2023-05-07T06:27:15;99173.09;;;20.38;59.06
80424;BME280;69765;47.668;19.326;2023-05-07T06:30:19;99169.59;;;20.38;60.85
80424;BME280;69765;47.668;19.326;2023-05-07T06:33:21;99171.19;;;20.64;60.09
80424;BME280;69765;47.668;19.326;2023-05-07T06:36:24;99166.72;;;20.93;59.08
80424;BME280;69765;47.668;19.326;2023-05-07T06:39:30;99168.50;;;20.95;56.38
80424;BME280;69765;47.668;19.326;2023-05-07T06:42:32;99168.41;;;20.91;55.80
80424;BME280;69765;47.668;19.326;2023-05-07T06:45:51;99157.84;;;20.85;56.08
80424;BME280;69765;47.668;19.326;2023-05-07T06:48:54;99162.22;;;20.88;57.19
80424;BME280;69765;47.668;19.326;2023-05-07T06:51:57;99157.06;;;21.26;56.10
80424;BME280;69765;47.668;19.326;2023-05-07T06:54:59;99163.78;;;21.51;53.76
80424;BME280;69765;47.668;19.326;2023-05-07T06:58:02;99165.53;;;21.52;52.95
80424;BME280;69765;47.668;19.326;2023-05-07T07:01:04;99173.25;;;21.88;51.94
80424;BME280;69765;47.668;19.326;2023-05-07T07:04:07;99170.88;;;21.59;51.90
80424;BME280;69765;47.668;19.326;2023-05-07T07:07:11;99176.69;;;22.26;47.63
80424;BME280;69765;47.668;19.326;2023-05-07T07:10:15;99179.06;;;22.61;47.82
80424;BME280;69765;47.668;19.326;2023-05-07T07:13:17;99184.88;;;22.94;48.46
80424;BME280;69765;47.668;19.326;2023-05-07T07:16:21;99181.38;;;22.92;47.38
80424;BME280;69765;47.668;19.326;2023-05-07T07:19:25;99170.81;;;23.42;46.73
80424;BME280;69765;47.668;19.326;2023-05-07T07:22:31;99182.41;;;23.58;46.21
80424;BME280;69765;47.668;19.326;2023-05-07T07:25:34;99175.22;;;24.06;44.52
80424;BME280;69765;47.668;19.326;2023-05-07T07:28:42;99178.25;;;24.39;42.73
80424;BME280;69765;47.668;19.326;2023-05-07T07:31:49;99178.25;;;24.41;43.76
80424;BME280;69765;47.668;19.326;2023-05-07T07:34:53;99173.00;;;25.40;41.94
80424;BME280;69765;47.668;19.326;2023-05-07T07:37:56;99174.94;;;25.65;41.43
80424;BME280;69765;47.668;19.326;2023-05-07T07:40:58;99181.72;;;25.34;40.56
80424;BME280;69765;47.668;19.326;2023-05-07T07:44:03;99181.22;;;25.93;39.85
80424;BME280;69765;47.668;19.326;2023-05-07T07:47:06;99170.09;;;27.03;37.17
80424;BME280;69765;47.668;19.326;2023-05-07T07:50:10;99178.91;;;27.16;37.42
80424;BME280;69765;47.668;19.326;2023-05-07T07:53:17;99182.75;;;24.54;40.86
80424;BME280;69765;47.668;19.326;2023-05-07T07:56:19;99178.56;;;25.84;38.17
80424;BME280;69765;47.668;19.326;2023-05-07T07:59:22;99182.38;;;26.87;35.85
80424;BME280;69765;47.668;19.326;2023-05-07T08:02:25;99179.69;;;26.44;35.61
80424;BME280;69765;47.668;19.326;2023-05-07T08:05:28;99187.38;;;25.98;35.62
80424;BME280;69765;47.668;19.326;2023-05-07T08:08:31;99183.09;;;26.28;36.45
80424;BME280;69765;47.668;19.326;2023-05-07T08:11:34;99185.00;;;27.29;34.88
80424;BME280;69765;47.668;19.326;2023-05-07T08:14:37;99177.72;;;28.25;33.51
80424;BME280;69765;47.668;19.326;2023-05-07T08:17:42;99185.81;;;27.90;34.58
80424;BME280;69765;47.668;19.326;2023-05-07T08:20:46;99183.91;;;28.17;34.56
80424;BME280;69765;47.668;19.326;2023-05-07T08:23:53;99184.81;;;28.16;33.73
80424;BME280;69765;47.668;19.326;2023-05-07T08:26:57;99189.31;;;27.85;33.86
80424;BME280;69765;47.668;19.326;2023-05-07T08:29:59;99193.72;;;26.54;34.48
80424;BME280;69765;47.668;19.326;2023-05-07T08:33:02;99183.44;;;25.29;37.10
80424;BME280;69765;47.668;19.326;2023-05-07T08:36:05;99182.72;;;25.52;36.64
80424;BME280;69765;47.668;19.326;2023-05-07T08:39:08;99181.25;;;26.04;35.83
80424;BME280;69765;47.668;19.326;2023-05-07T08:42:14;99181.31;;;26.19;35.41
80424;BME280;69765;47.668;19.326;2023-05-07T08:45:20;99182.97;;;25.94;35.69
80424;BME280;69765;47.668;19.326;2023-05-07T08:48:27;99183.91;;;26.04;34.86
80424;BME280;69765;47.668;19.326;2023-05-07T08:51:39;99193.78;;;26.88;33.54
80424;BME280;69765;47.668;19.326;2023-05-07T08:54:43;99176.44;;;28.98;31.92
80424;BME280;69765;47.668;19.326;2023-05-07T08:57:46;99176.84;;;28.28;29.73
80424;BME280;69765;47.668;19.326;2023-05-07T09:00:52;99174.06;;;28.59;30.52
80424;BME280;69765;47.668;19.326;2023-05-07T09:03:57;99173.56;;;29.24;30.01
80424;BME280;69765;47.668;19.326;2023-05-07T09:07:02;99172.47;;;28.24;30.61
80424;BME280;69765;47.668;19.326;2023-05-07T09:10:12;99172.91;;;28.93;29.50
80424;BME280;69765;47.668;19.326;2023-05-07T09:13:16;99170.34;;;28.84;32.45
80424;BME280;69765;47.668;19.326;2023-05-07T09:16:21;99170.78;;;29.41;31.69
80424;BME280;69765;47.668;19.326;2023-05-07T09:19:26;99176.91;;;29.40;31.04
80424;BME280;69765;47.668;19.326;2023-05-07T09:22:35;99173.31;;;28.34;32.75
80424;BME280;69765;47.668;19.326;2023-05-07T09:25:41;99182.28;;;27.91;32.58
80424;BME280;69765;47.668;19.326;2023-05-07T09:28:51;99178.81;;;27.69;32.84
80424;BME280;69765;47.668;19.326;2023-05-07T09:31:55;99177.56;;;30.41;29.05
80424;BME280;69765;47.668;19.326;2023-05-07T09:34:58;99170.00;;;31.30;28.08
80424;BME280;69765;47.668;19.326;2023-05-07T09:38:01;99174.78;;;29.81;28.94
80424;BME280;69765;47.668;19.326;2023-05-07T09:41:10;99165.34;;;31.91;25.08
80424;BME280;69765;47.668;19.326;2023-05-07T09:44:21;99166.63;;;31.21;26.59
80424;BME280;69765;47.668;19.326;2023-05-07T09:47:28;99158.59;;;29.28;28.98
80424;BME280;69765;47.668;19.326;2023-05-07T09:50:48;99160.72;;;28.82;30.76
80424;BME280;69765;47.668;19.326;2023-05-07T09:53:53;99154.13;;;29.36;29.79
80424;BME280;69765;47.668;19.326;2023-05-07T09:56:58;99158.50;;;31.78;26.65
80424;BME280;69765;47.668;19.326;2023-05-07T10:00:03;99157.66;;;32.61;24.87
80424;BME280;69765;47.668;19.326;2023-05-07T10:03:10;99162.22;;;31.69;26.22
80424;BME280;69765;47.668;19.326;2023-05-07T10:06:25;99173.25;;;29.58;29.04
80424;BME280;69765;47.668;19.326;2023-05-07T10:09:28;99166.94;;;28.73;30.41
80424;BME280;69765;47.668;19.326;2023-05-07T10:12:32;99171.59;;;28.28;31.62
80424;BME280;69765;47.668;19.326;2023-05-07T10:15:42;99169.22;;;27.41;32.91
80424;BME280;69765;47.668;19.326;2023-05-07T10:18:46;99173.63;;;27.13;33.19
80424;BME280;69765;47.668;19.326;2023-05-07T10:22:01;99165.66;;;27.62;31.24
80424;BME280;69765;47.668;19.326;2023-05-07T10:25:12;99177.41;;;28.85;30.89
80424;BME280;69765;47.668;19.326;2023-05-07T10:28:18;99178.84;;;26.96;35.86
80424;BME280;69765;47.668;19.326;2023-05-07T10:34:48;99191.63;;;24.70;38.30
80424;BME280;69765;47.668;19.326;2023-05-07T10:37:54;99194.63;;;23.59;39.06
80424;BME280;69765;47.668;19.326;2023-05-07T10:40:59;99201.81;;;23.16;38.87
80424;BME280;69765;47.668;19.326;2023-05-07T10:44:04;99195.06;;;23.29;38.76
80424;BME280;69765;47.668;19.326;2023-05-07T10:47:10;99189.75;;;23.84;36.92
80424;BME280;69765;47.668;19.326;2023-05-07T10:53:20;99192.44;;;25.69;33.08
80424;BME280;69765;47.668;19.326;2023-05-07T10:56:34;99191.16;;;27.21;31.16
80424;BME280;69765;47.668;19.326;2023-05-07T10:59:51;99186.31;;;25.66;33.45
80424;BME280;69765;47.668;19.326;2023-05-07T11:06:16;99176.19;;;26.45;32.54
80424;BME280;69765;47.668;19.326;2023-05-07T11:12:58;99179.78;;;27.13;30.81
80424;BME280;69765;47.668;19.326;2023-05-07T11:16:22;99176.16;;;27.83;30.80
80424;BME280;69765;47.668;19.326;2023-05-07T11:19:52;99185.88;;;26.97;31.48
80424;BME280;69765;47.668;19.326;2023-05-07T11:26:55;99182.75;;;24.54;36.57
80424;BME280;69765;47.668;19.326;2023-05-07T11:30:00;99165.22;;;25.51;35.65
80424;BME280;69765;47.668;19.326;2023-05-07T11:33:04;99166.47;;;27.91;32.21
80424;BME280;69765;47.668;19.326;2023-05-07T11:36:08;99175.38;;;27.27;33.24
80424;BME280;69765;47.668;19.326;2023-05-07T11:39:43;99170.94;;;27.54;31.98
80424;BME280;69765;47.668;19.326;2023-05-07T11:42:45;99164.88;;;29.96;28.43
80424;BME280;69765;47.668;19.326;2023-05-07T11:45:48;99162.47;;;31.55;26.83
80424;BME280;69765;47.668;19.326;2023-05-07T11:48:51;99153.91;;;31.41;27.22
80424;BME280;69765;47.668;19.326;2023-05-07T11:51:54;99154.31;;;32.11;26.36
80424;BME280;69765;47.668;19.326;2023-05-07T11:54:58;99147.81;;;31.86;26.41
80424;BME280;69765;47.668;19.326;2023-05-07T11:58:02;99156.97;;;29.98;28.48
80424;BME280;69765;47.668;19.326;2023-05-07T12:01:07;99146.81;;;31.90;26.56
80424;BME280;69765;47.668;19.326;2023-05-07T12:04:11;99146.75;;;29.67;29.15
80424;BME280;69765;47.668;19.326;2023-05-07T12:07:14;99153.41;;;26.50;35.34
80424;BME280;69765;47.668;19.326;2023-05-07T12:10:17;99148.47;;;24.36;37.47
80424;BME280;69765;47.668;19.326;2023-05-07T12:13:24;99160.47;;;25.01;36.68
80424;BME280;69765;47.668;19.326;2023-05-07T12:16:27;99148.03;;;24.78;36.28
80424;BME280;69765;47.668;19.326;2023-05-07T12:19:30;99153.94;;;24.53;38.72
80424;BME280;69765;47.668;19.326;2023-05-07T12:22:33;99160.25;;;26.06;35.08
80424;BME280;69765;47.668;19.326;2023-05-07T12:25:36;99157.44;;;28.46;31.84
80424;BME280;69765;47.668;19.326;2023-05-07T12:28:39;99149.59;;;30.23;28.39
80424;BME280;69765;47.668;19.326;2023-05-07T12:31:43;99147.31;;;27.39;34.07
80424;BME280;69765;47.668;19.326;2023-05-07T12:34:49;99151.94;;;28.80;32.03
80424;BME280;69765;47.668;19.326;2023-05-07T12:37:57;99142.06;;;27.30;35.55
80424;BME280;69765;47.668;19.326;2023-05-07T12:41:01;99142.88;;;27.53;34.65
80424;BME280;69765;47.668;19.326;2023-05-07T12:44:04;99141.13;;;29.13;32.02
80424;BME280;69765;47.668;19.326;2023-05-07T12:47:07;99135.91;;;27.27;33.70
80424;BME280;69765;47.668;19.326;2023-05-07T12:50:10;99141.19;;;26.72;33.38
80424;BME280;69765;47.668;19.326;2023-05-07T12:53:13;99138.44;;;27.61;30.59
80424;BME280;69765;47.668;19.326;2023-05-07T12:56:17;99126.28;;;27.20;30.31
80424;BME280;69765;47.668;19.326;2023-05-07T12:59:19;99132.28;;;27.81;31.06
80424;BME280;69765;47.668;19.326;2023-05-07T13:02:32;99124.50;;;26.99;32.52
80424;BME280;69765;47.668;19.326;2023-05-07T13:05:35;99127.16;;;27.01;32.35
80424;BME280;69765;47.668;19.326;2023-05-07T13:08:39;99126.19;;;26.21;32.45
80424;BME280;69765;47.668;19.326;2023-05-07T13:11:45;99118.41;;;27.08;31.44
80424;BME280;69765;47.668;19.326;2023-05-07T13:14:47;99118.34;;;27.33;30.49
80424;BME280;69765;47.668;19.326;2023-05-07T13:17:49;99116.59;;;27.38;30.69
80424;BME280;69765;47.668;19.326;2023-05-07T13:20:53;99121.00;;;26.58;33.94
80424;BME280;69765;47.668;19.326;2023-05-07T13:23:55;99119.28;;;27.16;33.74
80424;BME280;69765;47.668;19.326;2023-05-07T13:26:58;99113.97;;;27.35;32.65
80424;BME280;69765;47.668;19.326;2023-05-07T13:30:00;99103.41;;;27.50;32.61
80424;BME280;69765;47.668;19.326;2023-05-07T13:33:03;99107.00;;;27.29;32.63
80424;BME280;69765;47.668;19.326;2023-05-07T13:36:05;99106.81;;;25.84;33.90
80424;BME280;69765;47.668;19.326;2023-05-07T13:39:08;99107.81;;;26.27;33.07
80424;BME280;69765;47.668;19.326;2023-05-07T13:42:11;99108.69;;;26.26;32.93
80424;BME280;69765;47.668;19.326;2023-05-07T13:45:13;99108.66;;;26.14;33.99
80424;BME280;69765;47.668;19.326;2023-05-07T13:48:16;99106.78;;;25.76;34.48
80424;BME280;69765;47.668;19.326;2023-05-07T13:51:18;99106.00;;;26.15;33.38
80424;BME280;69765;47.668;19.326;2023-05-07T13:54:20;99096.38;;;26.02;34.61
80424;BME280;69765;47.668;19.326;2023-05-07T13:57:23;99099.00;;;25.97;34.58
80424;BME280;69765;47.668;19.326;2023-05-07T14:00:26;99095.16;;;25.34;35.65
80424;BME280;69765;47.668;19.326;2023-05-07T14:03:29;99094.25;;;25.26;35.88
80424;BME280;69765;47.668;19.326;2023-05-07T14:06:34;99078.66;;;25.54;35.29
80424;BME280;69765;47.668;19.326;2023-05-07T14:09:37;99083.25;;;26.02;34.81
80424;BME280;69765;47.668;19.326;2023-05-07T14:12:40;99081.41;;;25.83;35.07
80424;BME280;69765;47.668;19.326;2023-05-07T14:15:43;99083.03;;;25.56;35.45
80424;BME280;69765;47.668;19.326;2023-05-07T14:18:48;99089.16;;;25.55;36.43
80424;BME280;69765;47.668;19.326;2023-05-07T14:21:51;99085.78;;;25.76;36.04
80424;BME280;69765;47.668;19.326;2023-05-07T14:24:53;99090.69;;;25.13;35.09
80424;BME280;69765;47.668;19.326;2023-05-07T14:28:07;99094.72;;;24.73;35.19
80424;BME280;69765;47.668;19.326;2023-05-07T14:31:10;99097.34;;;24.74;35.73
80424;BME280;69765;47.668;19.326;2023-05-07T14:34:12;99101.00;;;24.95;36.23
80424;BME280;69765;47.668;19.326;2023-05-07T14:37:15;99096.69;;;25.02;35.61
80424;BME280;69765;47.668;19.326;2023-05-07T14:40:17;99095.75;;;24.92;35.87
80424;BME280;69765;47.668;19.326;2023-05-07T14:43:19;99099.13;;;24.76;35.04
80424;BME280;69765;47.668;19.326;2023-05-07T14:46:23;99112.03;;;24.53;36.21
80424;BME280;69765;47.668;19.326;2023-05-07T14:49:27;99117.06;;;24.34;35.50
80424;BME280;69765;47.668;19.326;2023-05-07T14:52:29;99117.00;;;24.31;35.75
80424;BME280;69765;47.668;19.326;2023-05-07T14:55:31;99114.66;;;24.54;35.54
80424;BME280;69765;47.668;19.326;2023-05-07T14:58:36;99117.06;;;24.36;35.67
80424;BME280;69765;47.668;19.326;2023-05-07T15:01:39;99110.38;;;23.82;35.27
80424;BME280;69765;47.668;19.326;2023-05-07T15:04:44;99108.09;;;24.12;35.21
80424;BME280;69765;47.668;19.326;2023-05-07T15:07:50;99115.44;;;23.68;34.72
80424;BME280;69765;47.668;19.326;2023-05-07T15:10:53;99108.53;;;23.75;35.58
80424;BME280;69765;47.668;19.326;2023-05-07T15:13:55;99108.47;;;23.70;36.21
80424;BME280;69765;47.668;19.326;2023-05-07T15:16:58;99110.06;;;23.62;35.96
80424;BME280;69765;47.668;19.326;2023-05-07T15:20:00;99109.06;;;23.51;36.38
80424;BME280;69765;47.668;19.326;2023-05-07T15:23:03;99113.75;;;23.12;37.05
80424;BME280;69765;47.668;19.326;2023-05-07T15:26:07;99112.81;;;23.09;37.15
80424;BME280;69765;47.668;19.326;2023-05-07T15:29:10;99115.91;;;22.85;37.44
80424;BME280;69765;47.668;19.326;2023-05-07T15:32:12;99121.31;;;22.94;37.80
80424;BME280;69765;47.668;19.326;2023-05-07T15:35:15;99106.91;;;23.22;37.97
80424;BME280;69765;47.668;19.326;2023-05-07T15:38:18;99110.84;;;22.92;37.20
80424;BME280;69765;47.668;19.326;2023-05-07T15:41:20;99111.66;;;22.90;37.10
80424;BME280;69765;47.668;19.326;2023-05-07T15:44:22;99111.81;;;22.99;37.36
80424;BME280;69765;47.668;19.326;2023-05-07T15:47:32;99112.59;;;22.93;37.52
80424;BME280;69765;47.668;19.326;2023-05-07T15:50:35;99117.19;;;22.57;38.04
80424;BME280;69765;47.668;19.326;2023-05-07T15:53:38;99118.59;;;22.39;37.57
80424;BME280;69765;47.668;19.326;2023-05-07T15:56:41;99124.47;;;22.26;38.44
80424;BME280;69765;47.668;19.326;2023-05-07T15:59:43;99123.81;;;22.39;38.49
80424;BME280;69765;47.668;19.326;2023-05-07T16:02:45;99117.72;;;21.93;39.47
80424;BME280;69765;47.668;19.326;2023-05-07T16:05:48;99113.50;;;22.00;40.41
80424;BME280;69765;47.668;19.326;2023-05-07T16:08:50;99116.09;;;22.00;39.26
80424;BME280;69765;47.668;19.326;2023-05-07T16:11:53;99121.78;;;21.79;39.85
80424;BME280;69765;47.668;19.326;2023-05-07T16:14:55;99123.19;;;21.63;40.11
80424;BME280;69765;47.668;19.326;2023-05-07T16:17:58;99116.03;;;21.55;40.60
80424;BME280;69765;47.668;19.326;2023-05-07T16:21:00;99116.00;;;21.53;41.15